createdAt,value
2017-11-19T00:00:41.285Z,0
2017-11-19T00:01:41.307Z,0
2017-11-19T00:02:41.040Z,0
2017-11-19T00:03:41.321Z,0
2017-11-19T00:04:41.057Z,0
2017-11-19T00:05:41.070Z,0
2017-11-19T00:06:41.366Z,0
2017-11-19T00:07:40.544Z,0
2017-11-19T00:08:40.832Z,0
2017-11-19T00:09:41.393Z,0
2017-11-19T00:10:41.394Z,0
2017-11-19T00:11:41.415Z,0
2017-11-19T00:12:41.146Z,0
2017-11-19T00:13:41.434Z,0
2017-11-19T00:14:41.500Z,0
2017-11-19T00:15:41.460Z,0
2017-11-19T00:16:40.920Z,0
2017-11-19T00:17:41.207Z,0
2017-11-19T00:18:41.216Z,0
2017-11-19T00:19:41.233Z,0
2017-11-19T00:20:41.248Z,0
2017-11-19T00:21:41.258Z,0
2017-11-19T00:22:41.257Z,0
2017-11-19T00:23:41.554Z,0
2017-11-19T00:24:41.549Z,0
2017-11-19T00:25:41.562Z,0
2017-11-19T00:26:41.570Z,0
2017-11-19T00:27:41.591Z,0
2017-11-19T00:28:41.327Z,0
2017-11-19T00:29:41.337Z,0
2017-11-19T00:30:41.628Z,0
2017-11-19T00:31:41.650Z,0
2017-11-19T00:32:41.094Z,0
2017-11-19T00:33:41.144Z,0
2017-11-19T00:34:41.130Z,0
2017-11-19T00:35:41.671Z,0
2017-11-19T00:36:41.415Z,0
2017-11-19T00:37:41.708Z,0
2017-11-19T00:38:41.472Z,0
2017-11-19T00:39:41.739Z,0
2017-11-19T00:40:41.726Z,0
2017-11-19T00:41:41.471Z,0
2017-11-19T00:42:41.241Z,0
2017-11-19T00:43:41.499Z,0
2017-11-19T00:44:41.781Z,0
2017-11-19T00:45:41.800Z,0
2017-11-19T00:46:41.534Z,0
2017-11-19T00:47:41.805Z,0
2017-11-19T00:48:41.273Z,0
2017-11-19T00:49:41.829Z,0
2017-11-19T00:50:41.568Z,0
2017-11-19T00:51:41.593Z,0
2017-11-19T00:52:41.596Z,0
2017-11-19T00:53:41.605Z,0
2017-11-19T00:54:41.616Z,0
2017-11-19T00:55:41.897Z,0
2017-11-19T00:56:41.904Z,0
2017-11-19T00:57:41.915Z,0
2017-11-19T00:58:41.668Z,0
2017-11-19T00:59:41.936Z,0
2017-11-19T01:00:41.681Z,0
2017-11-19T01:01:41.960Z,0
2017-11-19T01:02:41.980Z,0
2017-11-19T01:03:41.991Z,0
2017-11-19T01:04:41.726Z,0
2017-11-19T01:05:42.006Z,0
2017-11-19T01:06:42.019Z,0
2017-11-19T01:07:42.030Z,0
2017-11-19T01:08:41.500Z,0
2017-11-19T01:09:41.776Z,0
2017-11-19T01:10:41.797Z,0
2017-11-19T01:11:41.803Z,0
2017-11-19T01:12:42.086Z,0
2017-11-19T01:13:42.092Z,0
2017-11-19T01:14:42.109Z,0
2017-11-19T01:15:42.127Z,0
2017-11-19T01:16:41.857Z,0
2017-11-19T01:17:42.141Z,0
2017-11-19T01:18:41.891Z,0
2017-11-19T01:19:42.173Z,0
2017-11-19T01:20:42.179Z,0
2017-11-19T01:21:42.201Z,0
2017-11-19T01:22:42.193Z,0
2017-11-19T01:23:41.934Z,0
2017-11-19T01:24:42.217Z,0
2017-11-19T01:25:42.233Z,0
2017-11-19T01:26:42.245Z,0
2017-11-19T01:27:41.981Z,0
2017-11-19T01:28:42.275Z,0
2017-11-19T01:29:42.319Z,0
2017-11-19T01:30:42.289Z,0
2017-11-19T01:31:41.754Z,0
2017-11-19T01:32:42.040Z,0
2017-11-19T01:33:42.050Z,0
2017-11-19T01:34:42.334Z,0
2017-11-19T01:35:42.073Z,0
2017-11-19T01:36:42.357Z,0
2017-11-19T01:37:42.368Z,0
2017-11-19T01:38:42.375Z,0
2017-11-19T01:39:42.390Z,0
2017-11-19T01:40:42.141Z,0
2017-11-19T01:41:42.413Z,0
2017-11-19T01:42:42.421Z,0
2017-11-19T01:43:42.431Z,0
2017-11-19T01:44:42.173Z,0
2017-11-19T01:45:42.194Z,0
2017-11-19T01:46:42.208Z,0
2017-11-19T01:47:42.479Z,0
2017-11-19T01:48:42.495Z,0
2017-11-19T01:49:42.505Z,0
2017-11-19T01:50:42.511Z,0
2017-11-19T01:51:42.524Z,0
2017-11-19T01:52:42.260Z,0
2017-11-19T01:53:42.269Z,0
2017-11-19T01:54:48.291Z,0
2017-11-19T01:55:42.580Z,0
2017-11-19T01:56:42.309Z,0
2017-11-19T01:57:42.591Z,0
2017-11-19T01:58:42.340Z,0
2017-11-19T01:59:42.639Z,0
2017-11-19T02:00:42.633Z,0
2017-11-19T02:01:42.651Z,0
2017-11-19T02:02:42.375Z,0
2017-11-19T02:03:42.401Z,0
2017-11-19T02:04:42.402Z,0
2017-11-19T02:05:42.686Z,0
2017-11-19T02:06:42.736Z,0
2017-11-19T02:07:42.434Z,0
2017-11-19T02:08:42.721Z,0
2017-11-19T02:09:42.536Z,0
2017-11-19T02:10:42.746Z,0
2017-11-19T02:11:42.742Z,0
2017-11-19T02:12:42.782Z,0
2017-11-19T02:13:42.508Z,0
2017-11-19T02:14:42.791Z,0
2017-11-19T02:15:42.800Z,0
2017-11-19T02:16:42.263Z,0
2017-11-19T02:17:42.277Z,0
2017-11-19T02:18:42.280Z,0
2017-11-19T02:19:42.853Z,0
2017-11-19T02:20:42.850Z,0
2017-11-19T02:21:42.865Z,0
2017-11-19T02:22:42.599Z,0
2017-11-19T02:23:42.881Z,0
2017-11-19T02:24:42.901Z,0
2017-11-19T02:25:42.637Z,0
2017-11-19T02:26:42.917Z,0
2017-11-19T02:27:42.931Z,0
2017-11-19T02:28:42.661Z,0
2017-11-19T02:29:42.971Z,0
2017-11-19T02:30:42.973Z,0
2017-11-19T02:31:42.981Z,0
2017-11-19T02:32:42.460Z,0
2017-11-19T02:33:42.742Z,0
2017-11-19T02:34:42.747Z,0
2017-11-19T02:35:42.748Z,0
2017-11-19T02:36:43.041Z,0
2017-11-19T02:37:42.782Z,0
2017-11-19T02:38:43.066Z,0
2017-11-19T02:39:43.066Z,0
2017-11-19T02:40:43.080Z,0
2017-11-19T02:41:43.126Z,0
2017-11-19T02:42:43.108Z,0
2017-11-19T02:43:43.102Z,0
2017-11-19T02:44:43.122Z,0
2017-11-19T02:45:42.857Z,0
2017-11-19T02:46:43.142Z,0
2017-11-19T02:47:43.203Z,0
2017-11-19T02:48:42.891Z,0
2017-11-19T02:49:42.925Z,0
2017-11-19T02:50:43.197Z,0
2017-11-19T02:51:43.362Z,0
2017-11-19T02:52:42.667Z,0
2017-11-19T02:53:43.264Z,0
2017-11-19T02:54:43.230Z,0
2017-11-19T02:55:43.241Z,0
2017-11-19T02:56:42.992Z,0
2017-11-19T02:57:42.995Z,0
2017-11-19T02:58:43.274Z,0
2017-11-19T02:59:42.746Z,0
2017-11-19T03:00:43.301Z,0
2017-11-19T03:01:43.316Z,0
2017-11-19T03:02:42.784Z,0
2017-11-19T03:03:43.060Z,0
2017-11-19T03:04:43.087Z,0
2017-11-19T03:05:43.348Z,0
2017-11-19T03:06:43.368Z,0
2017-11-19T03:07:43.391Z,0
2017-11-19T03:08:43.390Z,0
2017-11-19T03:09:43.135Z,0
2017-11-19T03:10:43.412Z,0
2017-11-19T03:11:43.150Z,0
2017-11-19T03:12:43.428Z,0
2017-11-19T03:13:43.175Z,0
2017-11-19T03:14:43.464Z,0
2017-11-19T03:15:43.193Z,0
2017-11-19T03:16:43.493Z,0
2017-11-19T03:17:43.218Z,0
2017-11-19T03:18:42.960Z,0
2017-11-19T03:19:43.255Z,0
2017-11-19T03:20:43.535Z,0
2017-11-19T03:21:43.265Z,0
2017-11-19T03:22:43.271Z,0
2017-11-19T03:23:43.576Z,0
2017-11-19T03:24:43.563Z,0
2017-11-19T03:25:43.404Z,0
2017-11-19T03:26:43.335Z,0
2017-11-19T03:27:43.623Z,0
2017-11-19T03:28:43.646Z,0
2017-11-19T03:29:43.355Z,0
2017-11-19T03:30:43.654Z,0
2017-11-19T03:31:43.668Z,0
2017-11-19T03:32:43.653Z,0
2017-11-19T03:33:43.421Z,0
2017-11-19T03:34:43.681Z,0
2017-11-19T03:35:43.697Z,0
2017-11-19T03:36:43.698Z,0
2017-11-19T03:37:43.512Z,0
2017-11-19T03:38:43.451Z,0
2017-11-19T03:39:43.736Z,0
2017-11-19T03:40:43.755Z,0
2017-11-19T03:41:43.484Z,0
2017-11-19T03:42:43.226Z,0
2017-11-19T03:43:43.782Z,0
2017-11-19T03:44:43.785Z,0
2017-11-19T03:45:43.532Z,0
2017-11-19T03:46:43.829Z,0
2017-11-19T03:47:43.286Z,0
2017-11-19T03:48:43.584Z,0
2017-11-19T03:49:43.611Z,0
2017-11-19T03:50:43.858Z,0
2017-11-19T03:51:43.602Z,0
2017-11-19T03:52:43.879Z,0
2017-11-19T03:53:43.909Z,0
2017-11-19T03:54:43.354Z,0
2017-11-19T03:55:43.376Z,0
2017-11-19T03:56:43.928Z,0
2017-11-19T03:57:43.683Z,0
2017-11-19T03:58:43.943Z,0
2017-11-19T03:59:43.955Z,0
2017-11-19T04:00:43.691Z,0
2017-11-19T04:01:43.433Z,0
2017-11-19T04:02:43.718Z,0
2017-11-19T04:03:44.004Z,0
2017-11-19T04:04:44.001Z,0
2017-11-19T04:05:44.020Z,0
2017-11-19T04:06:44.038Z,0
2017-11-19T04:07:43.782Z,0
2017-11-19T04:08:43.790Z,0
2017-11-19T04:09:44.090Z,0
2017-11-19T04:10:44.079Z,0
2017-11-19T04:11:43.541Z,0
2017-11-19T04:12:44.124Z,0
2017-11-19T04:13:43.841Z,0
2017-11-19T04:14:43.571Z,0
2017-11-19T04:15:44.151Z,0
2017-11-19T04:16:43.877Z,0
2017-11-19T04:17:44.158Z,0
2017-11-19T04:18:44.168Z,0
2017-11-19T04:19:43.928Z,0
2017-11-19T04:20:44.189Z,0
2017-11-19T04:21:44.196Z,0
2017-11-19T04:22:44.222Z,0
2017-11-19T04:23:43.948Z,0
2017-11-19T04:24:44.231Z,0
2017-11-19T04:25:43.975Z,0
2017-11-19T04:26:43.978Z,0
2017-11-19T04:27:44.004Z,0
2017-11-19T04:28:44.289Z,0
2017-11-19T04:29:44.303Z,0
2017-11-19T04:30:44.294Z,0
2017-11-19T04:31:44.304Z,0
2017-11-19T04:32:44.324Z,0
2017-11-19T04:33:44.333Z,0
2017-11-19T04:34:44.363Z,0
2017-11-19T04:35:44.074Z,0
2017-11-19T04:36:44.367Z,0
2017-11-19T04:37:43.829Z,0
2017-11-19T04:38:44.115Z,0
2017-11-19T04:39:44.408Z,0
2017-11-19T04:40:44.135Z,0
2017-11-19T04:41:44.145Z,0
2017-11-19T04:42:44.455Z,0
2017-11-19T04:43:44.443Z,0
2017-11-19T04:44:44.466Z,0
2017-11-19T04:45:44.191Z,0
2017-11-19T04:46:44.469Z,0
2017-11-19T04:47:44.504Z,0
2017-11-19T04:48:44.504Z,0
2017-11-19T04:49:44.249Z,0
2017-11-19T04:50:44.508Z,0
2017-11-19T04:51:44.531Z,0
2017-11-19T04:52:44.536Z,0
2017-11-19T04:53:44.550Z,0
2017-11-19T04:54:44.018Z,0
2017-11-19T04:55:44.569Z,0
2017-11-19T04:56:44.306Z,0
2017-11-19T04:57:44.059Z,0
2017-11-19T04:58:44.333Z,0
2017-11-19T04:59:44.344Z,0
2017-11-19T05:00:44.626Z,0
2017-11-19T05:01:44.636Z,0
2017-11-19T05:02:44.365Z,0
2017-11-19T05:03:44.659Z,0
2017-11-19T05:04:44.817Z,0
2017-11-19T05:05:44.677Z,0
2017-11-19T05:06:44.421Z,0
2017-11-19T05:07:44.720Z,0
2017-11-19T05:08:44.716Z,0
2017-11-19T05:09:44.449Z,0
2017-11-19T05:10:44.459Z,0
2017-11-19T05:11:44.478Z,0
2017-11-19T05:12:44.759Z,0
2017-11-19T05:13:44.768Z,0
2017-11-19T05:14:44.538Z,0
2017-11-19T05:15:44.824Z,0
2017-11-19T05:16:44.519Z,0
2017-11-19T05:17:44.817Z,0
2017-11-19T05:18:44.830Z,0
2017-11-19T05:19:44.823Z,0
2017-11-19T05:20:44.837Z,0
2017-11-19T05:21:44.583Z,0
2017-11-19T05:22:44.860Z,0
2017-11-19T05:23:44.612Z,0
2017-11-19T05:24:44.622Z,0
2017-11-19T05:25:44.898Z,0
2017-11-19T05:26:44.901Z,0
2017-11-19T05:27:44.939Z,0
2017-11-19T05:28:44.926Z,0
2017-11-19T05:29:44.936Z,0
2017-11-19T05:30:44.404Z,0
2017-11-19T05:31:44.963Z,0
2017-11-19T05:32:44.973Z,0
2017-11-19T05:33:44.976Z,0
2017-11-19T05:34:44.995Z,0
2017-11-19T05:35:44.997Z,0
2017-11-19T05:36:45.013Z,0
2017-11-19T05:37:44.752Z,0
2017-11-19T05:38:45.034Z,0
2017-11-19T05:39:44.767Z,0
2017-11-19T05:40:44.799Z,0
2017-11-19T05:41:45.073Z,0
2017-11-19T05:42:45.084Z,0
2017-11-19T05:43:45.091Z,0
2017-11-19T05:44:44.822Z,0
2017-11-19T05:45:45.105Z,0
2017-11-19T05:46:45.119Z,0
2017-11-19T05:47:45.162Z,0
2017-11-19T05:48:45.148Z,0
2017-11-19T05:49:44.876Z,0
2017-11-19T05:50:45.168Z,0
2017-11-19T05:51:45.168Z,0
2017-11-19T05:52:44.924Z,0
2017-11-19T05:53:44.924Z,0
2017-11-19T05:54:45.205Z,0
2017-11-19T05:55:44.675Z,0
2017-11-19T05:56:45.224Z,0
2017-11-19T05:57:45.249Z,0
2017-11-19T05:58:45.250Z,0
2017-11-19T05:59:44.976Z,0
2017-11-19T06:00:45.261Z,0
2017-11-19T06:01:45.288Z,0
2017-11-19T06:02:45.028Z,0
2017-11-19T06:03:44.761Z,0
2017-11-19T06:04:45.059Z,0
2017-11-19T06:05:45.052Z,0
2017-11-19T06:06:45.331Z,0
2017-11-19T06:07:45.346Z,0
2017-11-19T06:08:45.356Z,0
2017-11-19T06:09:45.367Z,0
2017-11-19T06:10:45.094Z,0
2017-11-19T06:11:44.841Z,0
2017-11-19T06:12:45.395Z,0
2017-11-19T06:13:44.856Z,0
2017-11-19T06:14:45.419Z,4
2017-11-19T06:15:44.878Z,4
2017-11-19T06:16:45.165Z,0
2017-11-19T06:17:45.445Z,0
2017-11-19T06:18:45.204Z,4
2017-11-19T06:19:45.191Z,4
2017-11-19T06:20:45.487Z,4
2017-11-19T06:21:45.214Z,4
2017-11-19T06:22:45.509Z,8
2017-11-19T06:23:45.514Z,4
2017-11-19T06:24:45.512Z,8
2017-11-19T06:25:45.257Z,8
2017-11-19T06:26:45.541Z,12
2017-11-19T06:27:45.292Z,12
2017-11-19T06:28:45.294Z,12
2017-11-19T06:29:45.307Z,16
2017-11-19T06:30:45.582Z,16
2017-11-19T06:31:45.598Z,16
2017-11-19T06:32:45.330Z,20
2017-11-19T06:33:45.348Z,20
2017-11-19T06:34:45.355Z,24
2017-11-19T06:35:45.372Z,24
2017-11-19T06:36:45.381Z,28
2017-11-19T06:37:45.116Z,32
2017-11-19T06:38:45.673Z,36
2017-11-19T06:39:45.414Z,36
2017-11-19T06:40:45.422Z,40
2017-11-19T06:41:45.740Z,40
2017-11-19T06:42:45.703Z,44
2017-11-19T06:43:45.463Z,44
2017-11-19T06:44:45.760Z,52
2017-11-19T06:45:45.759Z,56
2017-11-19T06:46:45.757Z,56
2017-11-19T06:47:45.487Z,60
2017-11-19T06:48:45.784Z,64
2017-11-19T06:49:45.797Z,64
2017-11-19T06:50:45.868Z,68
2017-11-19T06:51:45.532Z,68
2017-11-19T06:52:45.549Z,76
2017-11-19T06:53:45.582Z,84
2017-11-19T06:54:45.563Z,88
2017-11-19T06:55:45.865Z,96
2017-11-19T06:56:45.320Z,100
2017-11-19T06:57:45.616Z,112
2017-11-19T06:58:45.618Z,124
2017-11-19T06:59:45.892Z,140
2017-11-19T07:00:45.635Z,160
2017-11-19T07:01:45.928Z,180
2017-11-19T07:02:45.106Z,196
2017-11-19T07:03:45.940Z,204
2017-11-19T07:04:45.404Z,212
2017-11-19T07:05:45.964Z,216
2017-11-19T07:06:45.971Z,224
2017-11-19T07:07:45.701Z,232
2017-11-19T07:08:45.975Z,252
2017-11-19T07:09:46.005Z,260
2017-11-19T07:10:46.052Z,264
2017-11-19T07:11:46.017Z,260
2017-11-19T07:12:46.024Z,248
2017-11-19T07:13:46.063Z,236
2017-11-19T07:14:46.054Z,224
2017-11-19T07:15:46.073Z,220
2017-11-19T07:16:45.793Z,224
2017-11-19T07:17:45.806Z,236
2017-11-19T07:18:46.123Z,244
2017-11-19T07:19:45.557Z,268
2017-11-19T07:20:46.138Z,292
2017-11-19T07:21:46.134Z,308
2017-11-19T07:22:46.143Z,288
2017-11-19T07:23:46.164Z,296
2017-11-19T07:24:46.153Z,308
2017-11-19T07:25:45.895Z,316
2017-11-19T07:26:46.179Z,332
2017-11-19T07:27:46.192Z,332
2017-11-19T07:28:46.197Z,308
2017-11-19T07:29:45.688Z,316
2017-11-19T07:30:46.222Z,304
2017-11-19T07:31:45.680Z,280
2017-11-19T07:32:45.961Z,272
2017-11-19T07:33:46.257Z,252
2017-11-19T07:34:46.257Z,260
2017-11-19T07:35:46.277Z,284
2017-11-19T07:36:46.290Z,308
2017-11-19T07:37:46.291Z,336
2017-11-19T07:38:46.031Z,368
2017-11-19T07:39:46.312Z,392
2017-11-19T07:40:46.316Z,388
2017-11-19T07:41:46.060Z,368
2017-11-19T07:42:46.085Z,372
2017-11-19T07:43:46.078Z,372
2017-11-19T07:44:46.105Z,348
2017-11-19T07:45:46.399Z,316
2017-11-19T07:46:46.388Z,316
2017-11-19T07:47:46.433Z,316
2017-11-19T07:48:46.138Z,316
2017-11-19T07:49:46.141Z,332
2017-11-19T07:50:45.630Z,332
2017-11-19T07:51:46.463Z,324
2017-11-19T07:52:46.180Z,296
2017-11-19T07:53:46.471Z,284
2017-11-19T07:54:46.477Z,284
2017-11-19T07:55:46.210Z,292
2017-11-19T07:56:46.495Z,300
2017-11-19T07:57:46.228Z,276
2017-11-19T07:58:46.245Z,228
2017-11-19T07:59:46.568Z,180
2017-11-19T08:00:46.275Z,160
2017-11-19T08:01:46.548Z,152
2017-11-19T08:02:46.007Z,152
2017-11-19T08:03:46.574Z,148
2017-11-19T08:04:46.316Z,152
2017-11-19T08:05:46.599Z,160
2017-11-19T08:06:46.057Z,164
2017-11-19T08:07:46.616Z,168
2017-11-19T08:08:46.348Z,176
2017-11-19T08:09:46.363Z,180
2017-11-19T08:10:46.653Z,184
2017-11-19T08:11:46.676Z,184
2017-11-19T08:12:46.669Z,184
2017-11-19T08:13:46.420Z,180
2017-11-19T08:14:46.429Z,180
2017-11-19T08:15:46.425Z,180
2017-11-19T08:16:46.177Z,184
2017-11-19T08:17:46.730Z,188
2017-11-19T08:18:46.456Z,196
2017-11-19T08:19:46.470Z,200
2017-11-19T08:20:46.754Z,204
2017-11-19T08:21:46.496Z,212
2017-11-19T08:22:46.505Z,228
2017-11-19T08:23:46.804Z,232
2017-11-19T08:24:46.800Z,244
2017-11-19T08:25:46.536Z,260
2017-11-19T08:26:46.844Z,264
2017-11-19T08:27:46.565Z,236
2017-11-19T08:28:46.887Z,224
2017-11-19T08:29:46.581Z,232
2017-11-19T08:30:46.896Z,232
2017-11-19T08:31:46.870Z,240
2017-11-19T08:32:46.339Z,244
2017-11-19T08:33:46.632Z,252
2017-11-19T08:34:46.901Z,272
2017-11-19T08:35:46.924Z,448
2017-11-19T08:36:46.664Z,372
2017-11-19T08:37:46.423Z,292
2017-11-19T08:38:46.669Z,248
2017-11-19T08:39:46.961Z,256
2017-11-19T08:40:46.146Z,256
2017-11-19T08:41:46.991Z,256
2017-11-19T08:42:47.005Z,260
2017-11-19T08:43:46.726Z,272
2017-11-19T08:44:46.734Z,340
2017-11-19T08:45:47.043Z,648
2017-11-19T08:46:46.493Z,624
2017-11-19T08:47:46.781Z,368
2017-11-19T08:48:46.783Z,304
2017-11-19T08:49:46.788Z,296
2017-11-19T08:50:47.080Z,288
2017-11-19T08:51:46.826Z,344
2017-11-19T08:52:46.821Z,320
2017-11-19T08:53:46.845Z,280
2017-11-19T08:54:46.572Z,276
2017-11-19T08:55:47.134Z,276
2017-11-19T08:56:46.593Z,284
2017-11-19T08:57:46.878Z,288
2017-11-19T08:58:47.159Z,288
2017-11-19T08:59:46.918Z,288
2017-11-19T09:00:46.915Z,292
2017-11-19T09:01:47.203Z,344
2017-11-19T09:02:47.233Z,544
2017-11-19T09:03:47.209Z,540
2017-11-19T09:04:46.960Z,532
2017-11-19T09:05:47.230Z,580
2017-11-19T09:06:47.250Z,812
2017-11-19T09:07:47.273Z,872
2017-11-19T09:08:47.270Z,676
2017-11-19T09:09:47.292Z,544
2017-11-19T09:10:47.289Z,500
2017-11-19T09:11:47.325Z,392
2017-11-19T09:12:47.322Z,568
2017-11-19T09:13:47.326Z,728
2017-11-19T09:14:46.789Z,752
2017-11-19T09:15:47.354Z,748
2017-11-19T09:16:47.351Z,740
2017-11-19T09:17:47.099Z,688
2017-11-19T09:18:47.392Z,512
2017-11-19T09:19:47.406Z,616
2017-11-19T09:20:47.129Z,688
2017-11-19T09:21:47.418Z,488
2017-11-19T09:22:47.152Z,400
2017-11-19T09:23:47.428Z,524
2017-11-19T09:24:47.450Z,408
2017-11-19T09:25:47.201Z,324
2017-11-19T09:26:47.478Z,320
2017-11-19T09:27:47.213Z,320
2017-11-19T09:28:46.949Z,340
2017-11-19T09:29:47.237Z,324
2017-11-19T09:30:47.242Z,320
2017-11-19T09:31:47.258Z,324
2017-11-19T09:32:47.261Z,328
2017-11-19T09:33:47.003Z,328
2017-11-19T09:34:47.563Z,332
2017-11-19T09:35:46.754Z,324
2017-11-19T09:36:47.312Z,324
2017-11-19T09:37:47.319Z,328
2017-11-19T09:38:47.617Z,340
2017-11-19T09:39:47.619Z,328
2017-11-19T09:40:46.822Z,344
2017-11-19T09:41:47.089Z,332
2017-11-19T09:42:47.652Z,360
2017-11-19T09:43:47.658Z,488
2017-11-19T09:44:47.665Z,356
2017-11-19T09:45:47.413Z,464
2017-11-19T09:46:47.697Z,384
2017-11-19T09:47:47.726Z,412
2017-11-19T09:48:47.446Z,464
2017-11-19T09:49:47.736Z,544
2017-11-19T09:50:47.231Z,640
2017-11-19T09:51:47.760Z,740
2017-11-19T09:52:47.787Z,944
2017-11-19T09:53:47.769Z,868
2017-11-19T09:54:47.790Z,864
2017-11-19T09:55:47.792Z,936
2017-11-19T09:56:47.524Z,1048
2017-11-19T09:57:47.827Z,1028
2017-11-19T09:58:47.830Z,932
2017-11-19T09:59:47.830Z,724
2017-11-19T10:00:47.618Z,580
2017-11-19T10:01:47.864Z,512
2017-11-19T10:02:47.870Z,568
2017-11-19T10:03:47.622Z,588
2017-11-19T10:04:47.632Z,708
2017-11-19T10:05:47.911Z,724
2017-11-19T10:06:47.938Z,624
2017-11-19T10:07:47.945Z,732
2017-11-19T10:08:47.952Z,788
2017-11-19T10:09:47.952Z,1596
2017-11-19T10:10:47.418Z,1440
2017-11-19T10:11:47.441Z,1248
2017-11-19T10:12:47.443Z,1628
2017-11-19T10:13:47.734Z,1540
2017-11-19T10:14:47.750Z,948
2017-11-19T10:15:48.036Z,1024
2017-11-19T10:16:48.053Z,1012
2017-11-19T10:17:48.052Z,1112
2017-11-19T10:18:48.067Z,1172
2017-11-19T10:19:47.805Z,1040
2017-11-19T10:20:48.084Z,1040
2017-11-19T10:21:47.844Z,948
2017-11-19T10:22:47.836Z,1152
2017-11-19T10:23:47.846Z,1180
2017-11-19T10:24:48.160Z,900
2017-11-19T10:25:47.871Z,1060
2017-11-19T10:26:48.168Z,1044
2017-11-19T10:27:48.165Z,1240
2017-11-19T10:28:47.908Z,1080
2017-11-19T10:29:48.207Z,992
2017-11-19T10:30:48.219Z,876
2017-11-19T10:31:48.225Z,772
2017-11-19T10:32:48.219Z,844
2017-11-19T10:33:48.246Z,852
2017-11-19T10:34:48.253Z,712
2017-11-19T10:35:48.005Z,752
2017-11-19T10:36:48.270Z,644
2017-11-19T10:37:48.285Z,852
2017-11-19T10:38:48.295Z,916
2017-11-19T10:39:48.318Z,868
2017-11-19T10:40:48.055Z,1112
2017-11-19T10:41:48.351Z,1152
2017-11-19T10:42:48.356Z,1188
2017-11-19T10:43:47.809Z,1056
2017-11-19T10:44:48.371Z,916
2017-11-19T10:45:48.384Z,624
2017-11-19T10:46:48.115Z,1172
2017-11-19T10:47:48.404Z,1428
2017-11-19T10:48:48.145Z,1228
2017-11-19T10:49:48.158Z,1248
2017-11-19T10:50:47.914Z,1124
2017-11-19T10:51:48.192Z,1112
2017-11-19T10:52:48.473Z,1048
2017-11-19T10:53:48.472Z,700
2017-11-19T10:54:48.229Z,924
2017-11-19T10:55:48.223Z,1344
2017-11-19T10:56:48.519Z,888
2017-11-19T10:57:48.251Z,708
2017-11-19T10:58:48.550Z,820
2017-11-19T10:59:47.999Z,940
2017-11-19T11:00:48.572Z,1220
2017-11-19T11:01:48.300Z,1324
2017-11-19T11:02:48.591Z,1040
2017-11-19T11:03:48.600Z,956
2017-11-19T11:04:48.335Z,928
2017-11-19T11:05:48.623Z,868
2017-11-19T11:06:48.640Z,728
2017-11-19T11:07:48.684Z,1012
2017-11-19T11:08:48.656Z,732
2017-11-19T11:09:48.410Z,784
2017-11-19T11:10:48.691Z,1280
2017-11-19T11:11:48.696Z,1052
2017-11-19T11:12:48.442Z,988
2017-11-19T11:13:48.463Z,1264
2017-11-19T11:14:48.458Z,1380
2017-11-19T11:15:48.771Z,1420
2017-11-19T11:16:48.772Z,1460
2017-11-19T11:17:48.497Z,1732
2017-11-19T11:18:48.511Z,1568
2017-11-19T11:19:48.798Z,1248
2017-11-19T11:20:48.550Z,1368
2017-11-19T11:21:48.551Z,912
2017-11-19T11:22:48.561Z,1104
2017-11-19T11:23:48.846Z,776
2017-11-19T11:24:48.316Z,612
2017-11-19T11:25:48.870Z,652
2017-11-19T11:26:48.618Z,868
2017-11-19T11:27:48.901Z,912
2017-11-19T11:28:48.902Z,484
2017-11-19T11:29:48.930Z,496
2017-11-19T11:30:48.958Z,464
2017-11-19T11:31:48.974Z,500
2017-11-19T11:32:48.683Z,592
2017-11-19T11:33:49.002Z,464
2017-11-19T11:34:48.723Z,400
2017-11-19T11:35:49.005Z,448
2017-11-19T11:36:48.744Z,456
2017-11-19T11:37:48.744Z,532
2017-11-19T11:38:49.042Z,656
2017-11-19T11:39:49.065Z,820
2017-11-19T11:40:48.795Z,908
2017-11-19T11:41:48.528Z,824
2017-11-19T11:42:48.819Z,796
2017-11-19T11:43:49.104Z,848
2017-11-19T11:44:49.115Z,1064
2017-11-19T11:45:48.851Z,1272
2017-11-19T11:46:48.872Z,1292
2017-11-19T11:47:49.148Z,1056
2017-11-19T11:48:49.158Z,1368
2017-11-19T11:49:49.176Z,1720
2017-11-19T11:50:49.189Z,1664
2017-11-19T11:51:48.929Z,1280
2017-11-19T11:52:48.944Z,1140
2017-11-19T11:53:48.954Z,1208
2017-11-19T11:54:48.708Z,1360
2017-11-19T11:55:49.259Z,1184
2017-11-19T11:56:49.265Z,1228
2017-11-19T11:57:49.284Z,1192
2017-11-19T11:58:49.020Z,1128
2017-11-19T11:59:49.312Z,872
2017-11-19T12:00:49.047Z,676
2017-11-19T12:01:49.316Z,696
2017-11-19T12:02:49.353Z,856
2017-11-19T12:03:48.799Z,716
2017-11-19T12:04:49.100Z,716
2017-11-19T12:05:49.382Z,636
2017-11-19T12:06:49.402Z,536
2017-11-19T12:07:49.126Z,532
2017-11-19T12:08:49.144Z,456
2017-11-19T12:09:49.428Z,472
2017-11-19T12:10:49.439Z,428
2017-11-19T12:11:49.179Z,428
2017-11-19T12:12:49.463Z,408
2017-11-19T12:13:48.952Z,312
2017-11-19T12:14:49.501Z,324
2017-11-19T12:15:49.517Z,332
2017-11-19T12:16:49.246Z,272
2017-11-19T12:17:49.554Z,336
2017-11-19T12:18:49.581Z,444
2017-11-19T12:19:49.285Z,440
2017-11-19T12:20:49.307Z,604
2017-11-19T12:21:49.588Z,532
2017-11-19T12:22:49.335Z,524
2017-11-19T12:23:49.069Z,348
2017-11-19T12:24:49.627Z,360
2017-11-19T12:25:49.086Z,400
2017-11-19T12:26:49.368Z,416
2017-11-19T12:27:49.388Z,312
2017-11-19T12:28:49.676Z,392
2017-11-19T12:29:49.141Z,396
2017-11-19T12:30:49.729Z,448
2017-11-19T12:31:49.713Z,380
2017-11-19T12:32:49.729Z,300
2017-11-19T12:33:49.467Z,292
2017-11-19T12:34:49.746Z,280
2017-11-19T12:35:49.226Z,336
2017-11-19T12:36:49.784Z,276
2017-11-19T12:37:49.524Z,272
2017-11-19T12:38:49.529Z,264
2017-11-19T12:39:49.850Z,264
2017-11-19T12:40:49.554Z,340
2017-11-19T12:41:49.840Z,524
2017-11-19T12:42:49.590Z,512
2017-11-19T12:43:49.598Z,368
2017-11-19T12:44:49.913Z,484
2017-11-19T12:45:49.629Z,464
2017-11-19T12:46:49.386Z,424
2017-11-19T12:47:49.921Z,352
2017-11-19T12:48:49.402Z,340
2017-11-19T12:49:49.944Z,392
2017-11-19T12:50:49.682Z,360
2017-11-19T12:51:49.990Z,296
2017-11-19T12:52:49.983Z,248
2017-11-19T12:53:50.003Z,244
2017-11-19T12:54:49.745Z,208
2017-11-19T12:55:50.046Z,188
2017-11-19T12:56:49.765Z,228
2017-11-19T12:57:49.778Z,216
2017-11-19T12:58:50.066Z,216
2017-11-19T12:59:50.099Z,216
2017-11-19T13:00:50.093Z,268
2017-11-19T13:01:50.119Z,324
2017-11-19T13:02:50.107Z,440
2017-11-19T13:03:49.846Z,592
2017-11-19T13:04:50.151Z,580
2017-11-19T13:05:49.346Z,484
2017-11-19T13:06:50.165Z,428
2017-11-19T13:07:50.190Z,348
2017-11-19T13:08:50.196Z,336
2017-11-19T13:09:49.928Z,368
2017-11-19T13:10:50.220Z,368
2017-11-19T13:11:50.222Z,324
2017-11-19T13:12:49.962Z,276
2017-11-19T13:13:49.975Z,240
2017-11-19T13:14:49.996Z,296
2017-11-19T13:15:49.459Z,332
2017-11-19T13:16:50.026Z,316
2017-11-19T13:17:50.303Z,316
2017-11-19T13:18:49.761Z,328
2017-11-19T13:19:50.366Z,348
2017-11-19T13:20:50.344Z,460
2017-11-19T13:21:50.366Z,572
2017-11-19T13:22:50.361Z,680
2017-11-19T13:23:50.100Z,536
2017-11-19T13:24:50.387Z,440
2017-11-19T13:25:50.399Z,376
2017-11-19T13:26:49.874Z,360
2017-11-19T13:27:49.893Z,332
2017-11-19T13:28:50.444Z,248
2017-11-19T13:29:50.476Z,268
2017-11-19T13:30:50.189Z,256
2017-11-19T13:31:49.922Z,232
2017-11-19T13:32:50.218Z,252
2017-11-19T13:33:50.230Z,212
2017-11-19T13:34:50.239Z,240
2017-11-19T13:35:50.550Z,260
2017-11-19T13:36:50.605Z,256
2017-11-19T13:37:50.553Z,236
2017-11-19T13:38:50.559Z,228
2017-11-19T13:39:50.569Z,228
2017-11-19T13:40:50.324Z,192
2017-11-19T13:41:50.335Z,168
2017-11-19T13:42:50.339Z,120
2017-11-19T13:43:50.350Z,92
2017-11-19T13:44:50.375Z,60
2017-11-19T13:45:50.656Z,68
2017-11-19T13:46:50.650Z,72
2017-11-19T13:47:50.696Z,100
2017-11-19T13:48:50.420Z,84
2017-11-19T13:49:50.428Z,44
2017-11-19T13:50:50.717Z,56
2017-11-19T13:51:50.718Z,64
2017-11-19T13:52:50.472Z,76
2017-11-19T13:53:50.208Z,100
2017-11-19T13:54:50.771Z,128
2017-11-19T13:55:50.805Z,96
2017-11-19T13:56:50.792Z,104
2017-11-19T13:57:50.521Z,96
2017-11-19T13:58:50.805Z,100
2017-11-19T13:59:50.558Z,96
2017-11-19T14:00:50.831Z,116
2017-11-19T14:01:50.576Z,156
2017-11-19T14:02:50.862Z,172
2017-11-19T14:03:50.327Z,180
2017-11-19T14:04:50.328Z,180
2017-11-19T14:05:50.899Z,164
2017-11-19T14:06:50.913Z,172
2017-11-19T14:07:50.653Z,164
2017-11-19T14:08:50.380Z,192
2017-11-19T14:09:50.667Z,176
2017-11-19T14:10:50.686Z,172
2017-11-19T14:11:50.990Z,136
2017-11-19T14:12:50.707Z,84